Time,TemperatureF,DewpointF,PressureIn,WindDirection,WindDirectionDegrees,WindSpeedMPH,WindSpeedGustMPH,Humidity,HourlyPrecipIn,Conditions,Clouds,dailyrainin,SoftwareType,DateUTC
2013-03-01 00:04:00,36.2,6.9,30.37,WSW,245,1.0,6.0,29,0.00,,,0.00,Wunderground v.1.15,2013-03-01 07:04:00,
2013-03-01 00:09:00,36.4,7.1,30.37,WSW,249,2.0,2.0,29,0.00,,,0.00,Wunderground v.1.15,2013-03-01 07:09:00,
2013-03-01 00:14:00,36.6,7.3,30.38,WSW,245,2.0,2.0,29,0.00,,,0.00,Wunderground v.1.15,2013-03-01 07:14:00,
2013-03-01 00:19:00,36.5,7.2,30.38,WSW,248,1.0,1.0,29,0.00,,,0.00,Wunderground v.1.15,2013-03-01 07:19:00,
2013-03-01 00:25:00,36.1,6.9,30.39,WNW,285,1.0,1.0,29,0.00,,,0.00,Wunderground v.1.15,2013-03-01 07:25:00,
2013-03-01 00:30:00,35.8,6.6,30.39,WNW,287,0.0,0.0,29,0.00,,,0.00,Wunderground v.1.15,2013-03-01 07:30:00,
2013-03-01 00:35:00,35.5,7.1,30.39,WNW,286,0.0,0.0,30,0.00,,,0.00,Wunderground v.1.15,2013-03-01 07:35:00,
2013-03-01 00:44:00,33.4,5.2,30.39,ENE,75,0.0,1.0,30,0.00,,,0.00,Wunderground v.1.15,2013-03-01 07:44:00,
2013-03-01 00:49:00,32.6,5.3,30.39,NNW,345,1.0,1.0,31,0.00,,,0.00,Wunderground v.1.15,2013-03-01 07:49:00,
2013-03-01 00:54:00,32.1,5.5,30.39,SE,143,1.0,1.0,32,0.00,,,0.00,Wunderground v.1.15,2013-03-01 07:54:00,
2013-03-01 01:00:00,32.1,5.5,30.39,South,178,1.0,1.0,32,0.00,,,0.00,Wunderground v.1.15,2013-03-01 08:00:00,
2013-03-01 01:10:00,32.4,5.8,30.39,West,279,0.0,0.0,32,0.00,,,0.00,Wunderground v.1.15,2013-03-01 08:10:00,
2013-03-01 01:15:00,32.4,6.4,30.39,NW,325,0.0,0.0,33,0.00,,,0.00,Wunderground v.1.15,2013-03-01 08:15:00,
2013-03-01 01:24:00,33.2,7.2,30.38,WSW,251,0.0,0.0,33,0.00,,,0.00,Wunderground v.1.15,2013-03-01 08:24:00,
2013-03-01 01:29:00,32.8,6.1,30.38,WSW,251,0.0,0.0,32,0.00,,,0.00,Wunderground v.1.15,2013-03-01 08:29:00,
2013-03-01 01:34:00,32.1,6.8,30.38,SW,226,0.0,0.0,34,0.00,,,0.00,Wunderground v.1.15,2013-03-01 08:34:00,
2013-03-01 01:39:00,32.3,7.7,30.38,SW,231,0.0,1.0,35,0.00,,,0.00,Wunderground v.1.15,2013-03-01 08:39:00,
2013-03-01 01:44:00,33.7,7.6,30.38,West,269,1.0,1.0,33,0.00,,,0.00,Wunderground v.1.15,2013-03-01 08:44:00,
2013-03-01 01:50:00,33.6,8.2,30.37,WNW,286,1.0,1.0,34,0.00,,,0.00,Wunderground v.1.15,2013-03-01 08:50:00,
2013-03-01 01:55:00,33.9,8.4,30.37,WNW,286,1.0,1.0,34,0.00,,,0.00,Wunderground v.1.15,2013-03-01 08:55:00,
2013-03-01 02:00:00,34.1,8.6,30.38,West,259,1.0,1.0,34,0.00,,,0.00,Wunderground v.1.15,2013-03-01 09:00:00,
2013-03-01 02:09:00,34.3,8.8,30.38,WNW,292,1.0,1.0,34,0.00,,,0.00,Wunderground v.1.15,2013-03-01 09:09:00,
2013-03-01 02:14:00,33.9,8.4,30.38,WNW,297,0.0,1.0,34,0.00,,,0.00,Wunderground v.1.15,2013-03-01 09:14:00,
2013-03-01 02:19:00,33.3,8.6,30.38,West,274,0.0,0.0,35,0.00,,,0.00,Wunderground v.1.15,2013-03-01 09:19:00,
2013-03-01 02:24:00,33.1,8.4,30.38,West,281,0.0,0.0,35,0.00,,,0.00,Wunderground v.1.15,2013-03-01 09:24:00,
2013-03-01 02:29:00,33.0,8.3,30.38,NW,304,0.0,0.0,35,0.00,,,0.00,Wunderground v.1.15,2013-03-01 09:29:00,
2013-03-01 02:35:00,32.7,8.0,30.39,NW,307,0.0,0.0,35,0.00,,,0.00,Wunderground v.1.15,2013-03-01 09:35:00,
2013-03-01 02:45:00,32.0,8.6,30.39,NW,314,0.0,0.0,37,0.00,,,0.00,Wunderground v.1.15,2013-03-01 09:45:00,
2013-03-01 02:50:00,32.5,9.1,30.39,West,274,1.0,2.0,37,0.00,,,0.00,Wunderground v.1.15,2013-03-01 09:50:00,
2013-03-01 02:55:00,33.5,9.4,30.38,West,259,2.0,2.0,36,0.00,,,0.00,Wunderground v.1.15,2013-03-01 09:55:00,
2013-03-01 03:04:00,34.7,9.8,30.38,WSW,251,3.0,3.0,35,0.00,,,0.00,Wunderground v.1.15,2013-03-01 10:04:00,
2013-03-01 03:09:00,35.0,10.1,30.38,West,261,3.0,3.0,35,0.00,,,0.00,Wunderground v.1.15,2013-03-01 10:09:00,
2013-03-01 03:14:00,35.0,10.1,30.38,West,274,3.0,3.0,35,0.00,,,0.00,Wunderground v.1.15,2013-03-01 10:14:00,
2013-03-01 03:19:00,35.1,10.2,30.38,NW,304,3.0,3.0,35,0.00,,,0.00,Wunderground v.1.15,2013-03-01 10:19:00,
2013-03-01 03:24:00,35.0,10.1,30.38,West,261,2.0,3.0,35,0.00,,,0.00,Wunderground v.1.15,2013-03-01 10:24:00,
2013-03-01 03:30:00,34.9,10.0,30.38,West,264,1.0,1.0,35,0.00,,,0.00,Wunderground v.1.15,2013-03-01 10:30:00,
2013-03-01 03:35:00,34.4,9.5,30.38,WNW,288,1.0,1.0,35,0.00,,,0.00,Wunderground v.1.15,2013-03-01 10:35:00,
2013-03-01 03:40:00,34.0,9.8,30.38,WNW,298,0.0,0.0,36,0.00,,,0.00,Wunderground v.1.15,2013-03-01 10:40:00,
2013-03-01 03:49:00,34.2,10.0,30.38,West,266,1.0,1.0,36,0.00,,,0.00,Wunderground v.1.15,2013-03-01 10:49:00,
2013-03-01 03:54:00,33.9,9.7,30.38,West,262,0.0,1.0,36,0.00,,,0.00,Wunderground v.1.15,2013-03-01 10:54:00,
2013-03-01 04:00:00,33.3,9.8,30.38,WNW,295,0.0,0.0,37,0.00,,,0.00,Wunderground v.1.15,2013-03-01 11:00:00,
2013-03-01 04:10:00,32.8,9.9,30.39,WNW,289,0.0,0.0,38,0.00,,,0.00,Wunderground v.1.15,2013-03-01 11:10:00,
2013-03-01 04:19:00,31.9,9.7,30.39,West,259,0.0,0.0,39,0.00,,,0.00,Wunderground v.1.15,2013-03-01 11:19:00,
2013-03-01 04:24:00,31.4,9.8,30.39,WSW,258,0.0,0.0,40,0.00,,,0.00,Wunderground v.1.15,2013-03-01 11:24:00,
2013-03-01 04:29:00,31.0,10.0,30.39,WSW,258,0.0,0.0,41,0.00,,,0.00,Wunderground v.1.15,2013-03-01 11:29:00,
2013-03-01 04:34:00,30.6,9.7,30.39,WSW,258,0.0,0.0,41,0.00,,,0.00,Wunderground v.1.15,2013-03-01 11:34:00,
2013-03-01 04:39:00,30.4,9.5,30.39,WSW,258,0.0,0.0,41,0.00,,,0.00,Wunderground v.1.15,2013-03-01 11:39:00,
2013-03-01 04:44:00,29.8,9.5,30.39,West,278,0.0,0.0,42,0.00,,,0.00,Wunderground v.1.15,2013-03-01 11:44:00,
2013-03-01 04:50:00,29.6,9.3,30.39,West,263,0.0,1.0,42,0.00,,,0.00,Wunderground v.1.15,2013-03-01 11:50:00,
2013-03-01 04:55:00,29.8,9.5,30.38,WSW,240,1.0,2.0,42,0.00,,,0.00,Wunderground v.1.15,2013-03-01 11:55:00,
2013-03-01 05:00:00,30.0,9.6,30.38,SW,236,2.0,2.0,42,0.00,,,0.00,Wunderground v.1.15,2013-03-01 12:00:00,
2013-03-01 05:09:00,30.8,9.8,30.38,SW,234,3.0,6.0,41,0.00,,,0.00,Wunderground v.1.15,2013-03-01 12:09:00,
2013-03-01 05:14:00,31.2,9.6,30.38,SSW,213,4.0,6.0,40,0.00,,,0.00,Wunderground v.1.15,2013-03-01 12:14:00,
2013-03-01 05:19:00,31.8,10.2,30.38,SW,229,4.0,4.0,40,0.00,,,0.00,Wunderground v.1.15,2013-03-01 12:19:00,
2013-03-01 05:24:00,31.9,10.3,30.38,WSW,251,3.0,4.0,40,0.00,,,0.00,Wunderground v.1.15,2013-03-01 12:24:00,
2013-03-01 05:34:00,31.3,9.7,30.39,WSW,251,0.0,1.0,40,0.00,,,0.00,Wunderground v.1.15,2013-03-01 12:34:00,
2013-03-01 05:40:00,30.8,9.3,30.39,NNE,30,0.0,1.0,40,0.00,,,0.00,Wunderground v.1.15,2013-03-01 12:40:00,
2013-03-01 05:45:00,29.4,8.6,30.39,NNE,33,0.0,1.0,41,0.00,,,0.00,Wunderground v.1.15,2013-03-01 12:45:00,
2013-03-01 05:50:00,28.4,8.7,30.40,SSW,207,0.0,0.0,43,0.00,,,0.00,Wunderground v.1.15,2013-03-01 12:50:00,
2013-03-01 05:55:00,28.6,9.4,30.40,NW,307,0.0,0.0,44,0.00,,,0.00,Wunderground v.1.15,2013-03-01 12:55:00,
2013-03-01 06:04:00,29.4,9.6,30.39,SW,229,0.0,0.0,43,0.00,,,0.00,Wunderground v.1.15,2013-03-01 13:04:00,
2013-03-01 06:09:00,30.0,9.6,30.40,WSW,242,0.0,0.0,42,0.00,,,0.00,Wunderground v.1.15,2013-03-01 13:09:00,
2013-03-01 06:14:00,29.8,9.5,30.40,WSW,251,0.0,0.0,42,0.00,,,0.00,Wunderground v.1.15,2013-03-01 13:14:00,
2013-03-01 06:19:00,29.6,9.3,30.40,West,264,0.0,0.0,42,0.00,,,0.00,Wunderground v.1.15,2013-03-01 13:19:00,
2013-03-01 06:24:00,29.6,9.3,30.41,West,268,1.0,1.0,42,0.00,,,0.00,Wunderground v.1.15,2013-03-01 13:24:00,
2013-03-01 06:30:00,29.5,9.2,30.41,WSW,257,1.0,1.0,42,0.00,,,0.00,Wunderground v.1.15,2013-03-01 13:30:00,
2013-03-01 06:35:00,29.4,9.6,30.41,WSW,242,1.0,3.0,43,0.00,,,0.00,Wunderground v.1.15,2013-03-01 13:35:00,
2013-03-01 06:40:00,29.3,9.5,30.41,West,260,1.0,1.0,43,0.00,,,0.00,Wunderground v.1.15,2013-03-01 13:40:00,
2013-03-01 06:45:00,29.0,9.3,30.41,WSW,255,1.0,1.0,43,0.00,,,0.00,Wunderground v.1.15,2013-03-01 13:45:00,
2013-03-01 06:54:00,29.0,9.8,30.42,West,262,0.0,0.0,44,0.00,,,0.00,Wunderground v.1.15,2013-03-01 13:54:00,
2013-03-01 07:00:00,29.8,10.0,30.42,West,262,0.0,0.0,43,0.00,,,0.00,Wunderground v.1.15,2013-03-01 14:00:00,
2013-03-01 07:09:00,32.6,10.9,30.42,West,264,0.0,0.0,40,0.00,,,0.00,Wunderground v.1.15,2013-03-01 14:09:00,
2013-03-01 07:14:00,32.9,10.6,30.42,WSW,243,0.0,0.0,39,0.00,,,0.00,Wunderground v.1.15,2013-03-01 14:14:00,
2013-03-01 07:20:00,33.8,10.8,30.43,NW,311,0.0,0.0,38,0.00,,,0.00,Wunderground v.1.15,2013-03-01 14:20:00,
2013-03-01 07:25:00,34.7,11.0,30.43,NNW,328,1.0,2.0,37,0.00,,,0.00,Wunderground v.1.15,2013-03-01 14:25:00,
2013-03-01 07:30:00,35.2,11.5,30.43,NW,307,1.0,1.0,37,0.00,,,0.00,Wunderground v.1.15,2013-03-01 14:30:00,
2013-03-01 07:39:00,36.0,11.6,30.44,West,267,1.0,1.0,36,0.00,,,0.00,Wunderground v.1.15,2013-03-01 14:39:00,
2013-03-01 07:44:00,36.1,11.0,30.44,WSW,246,1.0,1.0,35,0.00,,,0.00,Wunderground v.1.15,2013-03-01 14:44:00,
2013-03-01 07:49:00,36.3,11.2,30.44,NNW,328,1.0,1.0,35,0.00,,,0.00,Wunderground v.1.15,2013-03-01 14:49:00,
2013-03-01 07:54:00,36.6,11.5,30.44,WSW,248,1.0,1.0,35,0.00,,,0.00,Wunderground v.1.15,2013-03-01 14:54:00,
2013-03-01 08:00:00,37.3,11.5,30.45,West,259,1.0,1.0,34,0.00,,,0.00,Wunderground v.1.15,2013-03-01 15:00:00,
2013-03-01 08:10:00,39.0,11.6,30.44,NW,314,0.0,1.0,32,0.00,,,0.00,Wunderground v.1.15,2013-03-01 15:10:00,
2013-03-01 08:15:00,39.2,12.5,30.44,WNW,291,0.0,1.0,33,0.00,,,0.00,Wunderground v.1.15,2013-03-01 15:15:00,
2013-03-01 08:25:00,41.2,12.1,30.45,NW,323,0.0,1.0,30,0.00,,,0.00,Wunderground v.1.15,2013-03-01 15:25:00,
2013-03-01 08:34:00,41.5,12.3,30.45,WSW,244,0.0,1.0,30,0.00,,,0.00,Wunderground v.1.15,2013-03-01 15:34:00,
2013-03-01 08:39:00,41.0,11.9,30.45,WSW,255,1.0,1.0,30,0.00,,,0.00,Wunderground v.1.15,2013-03-01 15:39:00,
2013-03-01 08:44:00,42.0,12.8,30.44,WSW,237,1.0,4.0,30,0.00,,,0.00,Wunderground v.1.15,2013-03-01 15:44:00,
2013-03-01 08:49:00,42.3,13.0,30.44,NW,314,2.0,3.0,30,0.00,,,0.00,Wunderground v.1.15,2013-03-01 15:49:00,
2013-03-01 08:54:00,42.7,13.4,30.44,West,274,3.0,3.0,30,0.00,,,0.00,Wunderground v.1.15,2013-03-01 15:54:00,
2013-03-01 09:00:00,43.0,13.6,30.44,South,181,4.0,4.0,30,0.00,,,0.00,Wunderground v.1.15,2013-03-01 16:00:00,
2013-03-01 09:10:00,43.5,14.1,30.43,WSW,250,3.0,4.0,30,0.00,,,0.00,Wunderground v.1.15,2013-03-01 16:10:00,
2013-03-01 09:19:00,44.0,13.7,30.43,SW,231,5.0,5.0,29,0.00,,,0.00,Wunderground v.1.15,2013-03-01 16:19:00,
2013-03-01 09:24:00,44.5,14.2,30.42,NNW,338,4.0,5.0,29,0.00,,,0.00,Wunderground v.1.15,2013-03-01 16:24:00,
2013-03-01 09:29:00,45.1,14.7,30.42,NNW,342,3.0,3.0,29,0.00,,,0.00,Wunderground v.1.15,2013-03-01 16:29:00,
2013-03-01 09:34:00,45.3,14.9,30.43,NNE,32,4.0,4.0,29,0.00,,,0.00,Wunderground v.1.15,2013-03-01 16:34:00,
2013-03-01 09:39:00,45.5,14.2,30.43,West,262,5.0,5.0,28,0.00,,,0.00,Wunderground v.1.15,2013-03-01 16:39:00,
2013-03-01 09:44:00,45.6,14.3,30.43,WSW,246,6.0,6.0,28,0.00,,,0.00,Wunderground v.1.15,2013-03-01 16:44:00,
2013-03-01 09:50:00,45.7,14.4,30.42,East,89,6.0,6.0,28,0.00,,,0.00,Wunderground v.1.15,2013-03-01 16:50:00,
2013-03-01 09:55:00,45.8,14.5,30.42,West,271,5.0,6.0,28,0.00,,,0.00,Wunderground v.1.15,2013-03-01 16:55:00,
2013-03-01 10:00:00,45.8,14.5,30.42,North,8,5.0,5.0,28,0.00,,,0.00,Wunderground v.1.15,2013-03-01 17:00:00,
2013-03-01 10:09:00,46.8,15.4,30.41,South,172,4.0,7.0,28,0.00,,,0.00,Wunderground v.1.15,2013-03-01 17:09:00,
2013-03-01 10:14:00,47.2,15.7,30.41,NNW,338,4.0,7.0,28,0.00,,,0.00,Wunderground v.1.15,2013-03-01 17:14:00,
2013-03-01 10:19:00,47.5,16.0,30.41,West,266,5.0,10.0,28,0.00,,,0.00,Wunderground v.1.15,2013-03-01 17:19:00,
2013-03-01 10:24:00,47.7,15.3,30.41,SW,236,6.0,10.0,27,0.00,,,0.00,Wunderground v.1.15,2013-03-01 17:24:00,
2013-03-01 10:29:00,48.3,15.8,30.41,SW,221,5.0,5.0,27,0.00,,,0.00,Wunderground v.1.15,2013-03-01 17:29:00,
2013-03-01 10:35:00,48.5,16.0,30.41,NW,311,4.0,5.0,27,0.00,,,0.00,Wunderground v.1.15,2013-03-01 17:35:00,
2013-03-01 10:40:00,48.9,15.5,30.41,West,281,4.0,7.0,26,0.00,,,0.00,Wunderground v.1.15,2013-03-01 17:40:00,
2013-03-01 10:45:00,48.7,16.2,30.41,NW,318,5.0,7.0,27,0.00,,,0.00,Wunderground v.1.15,2013-03-01 17:45:00,
2013-03-01 10:50:00,49.7,16.2,30.40,South,188,5.0,6.0,26,0.00,,,0.00,Wunderground v.1.15,2013-03-01 17:50:00,
2013-03-01 11:00:00,50.1,16.5,30.40,SSE,149,4.0,4.0,26,0.00,,,0.00,Wunderground v.1.15,2013-03-01 18:00:00,
2013-03-01 11:09:00,50.9,16.3,30.40,SW,217,5.0,5.0,25,0.00,,,0.00,Wunderground v.1.15,2013-03-01 18:09:00,
2013-03-01 11:19:00,50.8,17.1,30.40,WNW,295,5.0,5.0,26,0.00,,,0.00,Wunderground v.1.15,2013-03-01 18:19:00,
2013-03-01 11:24:00,51.2,16.5,30.40,West,259,5.0,5.0,25,0.00,,,0.00,Wunderground v.1.15,2013-03-01 18:24:00,
2013-03-01 11:30:00,51.2,16.5,30.39,West,264,5.0,5.0,25,0.00,,,0.00,Wunderground v.1.15,2013-03-01 18:30:00,
2013-03-01 11:35:00,52.0,17.2,30.39,West,274,4.0,5.0,25,0.00,,,0.00,Wunderground v.1.15,2013-03-01 18:35:00,
2013-03-01 11:40:00,52.7,17.8,30.39,NW,323,3.0,3.0,25,0.00,,,0.00,Wunderground v.1.15,2013-03-01 18:40:00,
2013-03-01 11:49:00,53.0,18.1,30.38,WNW,301,6.0,6.0,25,0.00,,,0.00,Wunderground v.1.15,2013-03-01 18:49:00,
2013-03-01 11:54:00,52.5,17.6,30.39,NNW,335,6.0,6.0,25,0.00,,,0.00,Wunderground v.1.15,2013-03-01 18:54:00,
2013-03-01 12:00:00,52.5,18.6,30.38,West,274,7.0,7.0,26,0.00,,,0.00,Wunderground v.1.15,2013-03-01 19:00:00,
2013-03-01 12:10:00,53.7,18.7,30.37,SW,226,5.0,6.0,25,0.00,,,0.00,Wunderground v.1.15,2013-03-01 19:10:00,
2013-03-01 12:15:00,54.5,18.4,30.37,West,269,5.0,6.0,24,0.00,,,0.00,Wunderground v.1.15,2013-03-01 19:15:00,
2013-03-01 12:20:00,54.2,18.1,30.36,SW,226,6.0,12.0,24,0.00,,,0.00,Wunderground v.1.15,2013-03-01 19:20:00,
2013-03-01 12:25:00,54.6,18.5,30.36,NW,314,6.0,12.0,24,0.00,,,0.00,Wunderground v.1.15,2013-03-01 19:25:00,
2013-03-01 12:30:00,55.1,18.9,30.36,SE,124,6.0,9.0,24,0.00,,,0.00,Wunderground v.1.15,2013-03-01 19:30:00,
2013-03-01 12:39:00,55.0,18.8,30.35,West,268,7.0,7.0,24,0.00,,,0.00,Wunderground v.1.15,2013-03-01 19:39:00,
2013-03-01 12:44:00,55.1,18.9,30.35,NNW,345,5.0,8.0,24,0.00,,,0.00,Wunderground v.1.15,2013-03-01 19:44:00,
2013-03-01 12:49:00,55.5,18.2,30.34,WNW,285,5.0,8.0,23,0.00,,,0.00,Wunderground v.1.15,2013-03-01 19:49:00,
2013-03-01 12:54:00,55.3,18.1,30.34,NNE,25,6.0,8.0,23,0.00,,,0.00,Wunderground v.1.15,2013-03-01 19:54:00,
2013-03-01 13:00:00,55.7,18.4,30.33,West,278,6.0,9.0,23,0.00,,,0.00,Wunderground v.1.15,2013-03-01 20:00:00,
2013-03-01 13:10:00,55.7,18.4,30.33,West,259,5.0,5.0,23,0.00,,,0.00,Wunderground v.1.15,2013-03-01 20:10:00,
2013-03-01 13:15:00,56.2,18.8,30.33,West,261,6.0,6.0,23,0.00,,,0.00,Wunderground v.1.15,2013-03-01 20:15:00,
2013-03-01 13:24:00,56.8,19.3,30.32,West,273,6.0,7.0,23,0.00,,,0.00,Wunderground v.1.15,2013-03-01 20:24:00,
2013-03-01 13:29:00,56.6,18.1,30.32,WNW,293,7.0,10.0,22,0.00,,,0.00,Wunderground v.1.15,2013-03-01 20:29:00,
2013-03-01 13:34:00,56.3,18.9,30.32,NNW,333,7.0,10.0,23,0.00,,,0.00,Wunderground v.1.15,2013-03-01 20:34:00,
2013-03-01 13:39:00,56.9,18.4,30.31,West,280,6.0,6.0,22,0.00,,,0.00,Wunderground v.1.15,2013-03-01 20:39:00,
2013-03-01 13:44:00,57.6,19.0,30.31,SSW,208,5.0,6.0,22,0.00,,,0.00,Wunderground v.1.15,2013-03-01 20:44:00,
2013-03-01 13:49:00,57.7,19.1,30.31,ESE,103,5.0,13.0,22,0.00,,,0.00,Wunderground v.1.15,2013-03-01 20:49:00,
2013-03-01 13:55:00,57.3,18.7,30.30,SW,229,6.0,13.0,22,0.00,,,0.00,Wunderground v.1.15,2013-03-01 20:55:00,
2013-03-01 14:00:00,57.6,19.0,30.30,WNW,288,6.0,8.0,22,0.00,,,0.00,Wunderground v.1.15,2013-03-01 21:00:00,
2013-03-01 14:10:00,57.6,19.0,30.30,SW,233,6.0,6.0,22,0.00,,,0.00,Wunderground v.1.15,2013-03-01 21:10:00,
2013-03-01 14:19:00,57.7,19.1,30.29,West,279,6.0,6.0,22,0.00,,,0.00,Wunderground v.1.15,2013-03-01 21:19:00,
2013-03-01 14:24:00,58.6,18.7,30.30,SSE,163,6.0,6.0,21,0.00,,,0.00,Wunderground v.1.15,2013-03-01 21:24:00,
2013-03-01 14:29:00,58.9,19.0,30.30,WSW,246,6.0,8.0,21,0.00,,,0.00,Wunderground v.1.15,2013-03-01 21:29:00,
2013-03-01 14:34:00,58.7,18.8,30.29,NW,323,6.0,8.0,21,0.00,,,0.00,Wunderground v.1.15,2013-03-01 21:34:00,
2013-03-01 14:39:00,58.5,18.6,30.29,NNW,330,6.0,10.0,21,0.00,,,0.00,Wunderground v.1.15,2013-03-01 21:39:00,
2013-03-01 14:45:00,58.2,19.5,30.29,WNW,283,7.0,11.0,22,0.00,,,0.00,Wunderground v.1.15,2013-03-01 21:45:00,
2013-03-01 14:50:00,58.2,19.5,30.29,SSW,192,6.0,6.0,22,0.00,,,0.00,Wunderground v.1.15,2013-03-01 21:50:00,
2013-03-01 14:55:00,58.3,18.5,30.29,East,101,6.0,9.0,21,0.00,,,0.00,Wunderground v.1.15,2013-03-01 21:55:00,
2013-03-01 15:04:00,59.8,19.7,30.29,South,188,5.0,11.0,21,0.00,,,0.00,Wunderground v.1.15,2013-03-01 22:04:00,
2013-03-01 15:09:00,60.0,19.9,30.28,NNE,30,6.0,6.0,21,0.00,,,0.00,Wunderground v.1.15,2013-03-01 22:09:00,
2013-03-01 15:14:00,60.0,19.9,30.28,SSW,195,6.0,8.0,21,0.00,,,0.00,Wunderground v.1.15,2013-03-01 22:14:00,
2013-03-01 15:19:00,59.5,19.5,30.28,West,281,6.0,6.0,21,0.00,,,0.00,Wunderground v.1.15,2013-03-01 22:19:00,
2013-03-01 15:24:00,59.6,19.6,30.28,West,276,5.0,6.0,21,0.00,,,0.00,Wunderground v.1.15,2013-03-01 22:24:00,
2013-03-01 15:30:00,59.7,19.6,30.27,West,279,5.0,5.0,21,0.00,,,0.00,Wunderground v.1.15,2013-03-01 22:30:00,
2013-03-01 15:35:00,59.4,19.4,30.27,West,273,6.0,9.0,21,0.00,,,0.00,Wunderground v.1.15,2013-03-01 22:35:00,
2013-03-01 15:40:00,58.9,20.1,30.27,NE,37,6.0,12.0,22,0.00,,,0.00,Wunderground v.1.15,2013-03-01 22:40:00,
2013-03-01 15:49:00,58.7,19.9,30.27,WSW,240,7.0,7.0,22,0.00,,,0.00,Wunderground v.1.15,2013-03-01 22:49:00,
2013-03-01 15:54:00,59.4,20.5,30.26,WSW,245,6.0,7.0,22,0.00,,,0.00,Wunderground v.1.15,2013-03-01 22:54:00,
2013-03-01 16:00:00,59.4,20.5,30.26,West,278,6.0,6.0,22,0.00,,,0.00,Wunderground v.1.15,2013-03-01 23:00:00,
2013-03-01 16:10:00,59.4,20.5,30.26,West,269,6.0,6.0,22,0.00,,,0.00,Wunderground v.1.15,2013-03-01 23:10:00,
2013-03-01 16:15:00,59.5,20.6,30.26,WNW,283,6.0,8.0,22,0.00,,,0.00,Wunderground v.1.15,2013-03-01 23:15:00,
2013-03-01 16:20:00,59.3,20.4,30.26,NW,305,7.0,8.0,22,0.00,,,0.00,Wunderground v.1.15,2013-03-01 23:20:00,
2013-03-01 16:30:00,59.1,20.2,30.27,West,266,7.0,7.0,22,0.00,,,0.00,Wunderground v.1.15,2013-03-01 23:30:00,
2013-03-01 16:39:00,58.7,21.0,30.27,West,272,6.0,6.0,23,0.00,,,0.00,Wunderground v.1.15,2013-03-01 23:39:00,
2013-03-01 16:44:00,58.4,20.7,30.27,NNW,342,7.0,7.0,23,0.00,,,0.00,Wunderground v.1.15,2013-03-01 23:44:00,
2013-03-01 16:49:00,58.4,21.7,30.27,West,264,6.0,7.0,24,0.00,,,0.00,Wunderground v.1.15,2013-03-01 23:49:00,
2013-03-01 16:54:00,58.0,21.4,30.27,WNW,295,7.0,10.0,24,0.00,,,0.00,Wunderground v.1.15,2013-03-01 23:54:00,
2013-03-01 17:00:00,57.5,20.9,30.27,West,276,8.0,8.0,24,0.00,,,0.00,Wunderground v.1.15,2013-03-02 00:00:00,
2013-03-01 17:10:00,57.4,20.9,30.26,North,356,6.0,8.0,24,0.00,,,0.00,Wunderground v.1.15,2013-03-02 00:10:00,
2013-03-01 17:15:00,57.2,20.7,30.27,WNW,297,7.0,8.0,24,0.00,,,0.00,Wunderground v.1.15,2013-03-02 00:15:00,
2013-03-01 17:24:00,56.7,21.2,30.27,North,8,6.0,6.0,25,0.00,,,0.00,Wunderground v.1.15,2013-03-02 00:24:00,
2013-03-01 17:29:00,56.5,21.1,30.27,WNW,294,6.0,6.0,25,0.00,,,0.00,Wunderground v.1.15,2013-03-02 00:29:00,
2013-03-01 17:34:00,56.2,20.8,30.27,WNW,290,5.0,6.0,25,0.00,,,0.00,Wunderground v.1.15,2013-03-02 00:34:00,
2013-03-01 17:39:00,55.8,20.5,30.27,WSW,255,5.0,5.0,25,0.00,,,0.00,Wunderground v.1.15,2013-03-02 00:39:00,
2013-03-01 17:44:00,55.4,21.0,30.27,SW,219,5.0,5.0,26,0.00,,,0.00,Wunderground v.1.15,2013-03-02 00:44:00,
2013-03-01 17:50:00,54.8,20.5,30.27,SW,235,4.0,5.0,26,0.00,,,0.00,Wunderground v.1.15,2013-03-02 00:50:00,
2013-03-01 17:55:00,54.2,20.0,30.28,WNW,296,5.0,5.0,26,0.00,,,0.00,Wunderground v.1.15,2013-03-02 00:55:00,
2013-03-01 18:00:00,53.7,20.5,30.28,WNW,299,5.0,5.0,27,0.00,,,0.00,Wunderground v.1.15,2013-03-02 01:00:00,
2013-03-01 18:09:00,53.0,20.7,30.28,West,278,5.0,5.0,28,0.00,,,0.00,Wunderground v.1.15,2013-03-02 01:09:00,
2013-03-01 18:14:00,52.7,21.3,30.28,WNW,298,4.0,5.0,29,0.00,,,0.00,Wunderground v.1.15,2013-03-02 01:14:00,
2013-03-01 18:19:00,52.2,20.9,30.28,WNW,297,4.0,4.0,29,0.00,,,0.00,Wunderground v.1.15,2013-03-02 01:19:00,
2013-03-01 18:24:00,51.7,20.4,30.28,North,360,4.0,5.0,29,0.00,,,0.00,Wunderground v.1.15,2013-03-02 01:24:00,
2013-03-01 18:29:00,51.5,21.0,30.29,WNW,301,4.0,5.0,30,0.00,,,0.00,Wunderground v.1.15,2013-03-02 01:29:00,
2013-03-01 18:35:00,51.2,20.8,30.29,West,267,4.0,5.0,30,0.00,,,0.00,Wunderground v.1.15,2013-03-02 01:35:00,
2013-03-01 18:45:00,50.4,20.1,30.29,NNW,328,4.0,4.0,30,0.00,,,0.00,Wunderground v.1.15,2013-03-02 01:45:00,
2013-03-01 18:50:00,50.3,20.8,30.29,NNW,345,4.0,5.0,31,0.00,,,0.00,Wunderground v.1.15,2013-03-02 01:50:00,
2013-03-01 18:55:00,50.2,20.7,30.30,WNW,285,4.0,5.0,31,0.00,,,0.00,Wunderground v.1.15,2013-03-02 01:55:00,
2013-03-01 19:04:00,49.5,20.8,30.30,NW,311,4.0,4.0,32,0.00,,,0.00,Wunderground v.1.15,2013-03-02 02:04:00,
2013-03-01 19:09:00,48.9,20.3,30.30,West,281,3.0,3.0,32,0.00,,,0.00,Wunderground v.1.15,2013-03-02 02:09:00,
2013-03-01 19:19:00,48.3,19.8,30.31,NW,306,3.0,5.0,32,0.00,,,0.00,Wunderground v.1.15,2013-03-02 02:19:00,
2013-03-01 19:24:00,48.4,20.6,30.31,West,278,3.0,5.0,33,0.00,,,0.00,Wunderground v.1.15,2013-03-02 02:24:00,
2013-03-01 19:30:00,48.6,20.0,30.31,NW,315,4.0,4.0,32,0.00,,,0.00,Wunderground v.1.15,2013-03-02 02:30:00,
2013-03-01 19:35:00,48.5,19.9,30.31,WNW,290,4.0,4.0,32,0.00,,,0.00,Wunderground v.1.15,2013-03-02 02:35:00,
2013-03-01 19:44:00,48.0,20.2,30.31,West,281,3.0,5.0,33,0.00,,,0.00,Wunderground v.1.15,2013-03-02 02:44:00,
2013-03-01 19:49:00,47.8,20.8,30.31,NNW,341,3.0,3.0,34,0.00,,,0.00,Wunderground v.1.15,2013-03-02 02:49:00,
2013-03-01 19:54:00,47.7,20.7,30.32,NW,308,3.0,3.0,34,0.00,,,0.00,Wunderground v.1.15,2013-03-02 02:54:00,
2013-03-01 20:00:00,47.7,20.7,30.32,ESE,103,3.0,6.0,34,0.00,,,0.00,Wunderground v.1.15,2013-03-02 03:00:00,
2013-03-01 20:10:00,47.3,20.3,30.32,NW,326,3.0,3.0,34,0.00,,,0.00,Wunderground v.1.15,2013-03-02 03:10:00,
2013-03-01 20:15:00,47.0,20.7,30.32,NNW,348,3.0,3.0,35,0.00,,,0.00,Wunderground v.1.15,2013-03-02 03:15:00,
2013-03-01 20:25:00,46.8,21.2,30.32,NW,325,4.0,4.0,36,0.00,,,0.00,Wunderground v.1.15,2013-03-02 03:25:00,
2013-03-01 20:34:00,46.4,20.9,30.33,NNW,342,4.0,6.0,36,0.00,,,0.00,Wunderground v.1.15,2013-03-02 03:34:00,
2013-03-01 20:39:00,46.2,21.3,30.33,NW,318,4.0,4.0,37,0.00,,,0.00,Wunderground v.1.15,2013-03-02 03:39:00,
2013-03-01 20:44:00,45.9,20.4,30.33,WNW,287,4.0,6.0,36,0.00,,,0.00,Wunderground v.1.15,2013-03-02 03:44:00,
2013-03-01 20:50:00,46.5,21.6,30.33,North,356,4.0,7.0,37,0.00,,,0.00,Wunderground v.1.15,2013-03-02 03:50:00,
2013-03-01 20:55:00,47.1,21.5,30.33,WSW,247,6.0,10.0,36,0.00,,,0.00,Wunderground v.1.15,2013-03-02 03:55:00,
2013-03-01 21:00:00,47.2,21.6,30.33,WNW,303,6.0,7.0,36,0.00,,,0.00,Wunderground v.1.15,2013-03-02 04:00:00,
2013-03-01 21:09:00,46.7,21.1,30.33,West,277,5.0,5.0,36,0.00,,,0.00,Wunderground v.1.15,2013-03-02 04:09:00,
2013-03-01 21:14:00,46.3,20.8,30.33,NNW,327,4.0,5.0,36,0.00,,,0.00,Wunderground v.1.15,2013-03-02 04:14:00,
2013-03-01 21:19:00,46.0,21.1,30.33,SW,216,4.0,6.0,37,0.00,,,0.00,Wunderground v.1.15,2013-03-02 04:19:00,
2013-03-01 21:24:00,45.9,21.1,30.33,WSW,242,4.0,6.0,37,0.00,,,0.00,Wunderground v.1.15,2013-03-02 04:24:00,
2013-03-01 21:30:00,45.9,21.7,30.33,SW,214,4.0,4.0,38,0.00,,,0.00,Wunderground v.1.15,2013-03-02 04:30:00,
2013-03-01 21:40:00,46.1,21.2,30.33,WNW,297,5.0,5.0,37,0.00,,,0.00,Wunderground v.1.15,2013-03-02 04:40:00,
2013-03-01 21:45:00,46.1,21.2,30.33,WNW,301,5.0,5.0,37,0.00,,,0.00,Wunderground v.1.15,2013-03-02 04:45:00,
2013-03-01 21:54:00,45.9,21.7,30.33,West,281,5.0,5.0,38,0.00,,,0.00,Wunderground v.1.15,2013-03-02 04:54:00,
2013-03-01 22:00:00,45.6,21.4,30.33,NNW,347,5.0,5.0,38,0.00,,,0.00,Wunderground v.1.15,2013-03-02 05:00:00,
2013-03-01 22:04:00,45.4,21.2,30.33,NNW,346,4.0,5.0,38,0.00,,,0.00,Wunderground v.1.15,2013-03-02 05:04:00,
2013-03-01 22:14:00,45.2,21.7,30.33,North,359,4.0,5.0,39,0.00,,,0.00,Wunderground v.1.15,2013-03-02 05:14:00,
2013-03-01 22:20:00,45.1,21.6,30.33,NW,326,4.0,6.0,39,0.00,,,0.00,Wunderground v.1.15,2013-03-02 05:20:00,
2013-03-01 22:25:00,45.3,21.8,30.33,North,1,5.0,6.0,39,0.00,,,0.00,Wunderground v.1.15,2013-03-02 05:25:00,
2013-03-01 22:34:00,45.3,21.8,30.33,North,2,4.0,5.0,39,0.00,,,0.00,Wunderground v.1.15,2013-03-02 05:34:00,
2013-03-01 22:39:00,45.1,21.6,30.33,South,189,3.0,6.0,39,0.00,,,0.00,Wunderground v.1.15,2013-03-02 05:39:00,
2013-03-01 22:49:00,44.6,21.7,30.34,WSW,248,1.0,2.0,40,0.00,,,0.00,Wunderground v.1.15,2013-03-02 05:49:00,
2013-03-01 22:54:00,44.3,21.5,30.34,SW,234,1.0,2.0,40,0.00,,,0.00,Wunderground v.1.15,2013-03-02 05:54:00,
2013-03-01 23:00:00,43.9,21.1,30.34,SW,236,2.0,2.0,40,0.00,,,0.00,Wunderground v.1.15,2013-03-02 06:00:00,
2013-03-01 23:10:00,43.2,21.1,30.34,WSW,252,1.0,2.0,41,0.00,,,0.00,Wunderground v.1.15,2013-03-02 06:10:00,
2013-03-01 23:20:00,42.6,21.1,30.35,WSW,258,1.0,1.0,42,0.00,,,0.00,Wunderground v.1.15,2013-03-02 06:20:00,
2013-03-01 23:25:00,42.7,21.7,30.35,WNW,293,1.0,3.0,43,0.00,,,0.00,Wunderground v.1.15,2013-03-02 06:25:00,
2013-03-01 23:34:00,43.7,21.5,30.35,SE,130,1.0,2.0,41,0.00,,,0.00,Wunderground v.1.15,2013-03-02 06:34:00,
2013-03-01 23:39:00,43.6,22.0,30.35,South,186,1.0,2.0,42,0.00,,,0.00,Wunderground v.1.15,2013-03-02 06:39:00,
2013-03-01 23:44:00,43.7,22.1,30.35,SSW,205,2.0,2.0,42,0.00,,,0.00,Wunderground v.1.15,2013-03-02 06:44:00,
2013-03-01 23:54:00,43.1,21.5,30.36,SW,221,1.0,2.0,42,0.00,,,0.00,Wunderground v.1.15,2013-03-02 06:54:00,